createdAt,value
2022-10-06T00:00:16.284Z,1.40
2022-10-06T00:02:46.212Z,1.27
2022-10-06T00:05:13.885Z,1.77
2022-10-06T00:07:41.214Z,2.60
2022-10-06T00:10:09.795Z,2.38
2022-10-06T00:12:40.556Z,1.90
2022-10-06T00:15:08.853Z,2.03
2022-10-06T00:17:36.149Z,1.80
2022-10-06T00:20:05.208Z,1.92
2022-10-06T00:22:34.197Z,2.25
2022-10-06T00:25:02.026Z,1.20
2022-10-06T00:27:34.065Z,1.30
2022-10-06T00:30:01.451Z,1.45
2022-10-06T00:32:28.717Z,1.73
2022-10-06T00:34:58.509Z,1.40
2022-10-06T00:37:27.294Z,1.50
2022-10-06T00:39:54.802Z,1.65
2022-10-06T00:42:23.672Z,1.55
2022-10-06T00:44:51.236Z,2.20
2022-10-06T00:47:18.605Z,1.58
2022-10-06T00:49:46.673Z,1.15
2022-10-06T00:52:17.295Z,1.27
2022-10-06T00:54:45.973Z,1.80
2022-10-06T00:57:13.332Z,1.42
2022-10-06T00:59:41.061Z,1.55
2022-10-06T01:02:10.270Z,1.77
2022-10-06T01:04:39.240Z,1.45
2022-10-06T01:07:07.739Z,1.60
2022-10-06T01:09:35.597Z,1.73
2022-10-06T01:12:05.054Z,1.40
2022-10-06T01:14:32.983Z,1.90
2022-10-06T01:17:02.524Z,2.20
2022-10-06T01:19:36.229Z,1.42
2022-10-06T01:22:05.759Z,1.88
2022-10-06T01:24:34.529Z,1.90
2022-10-06T01:27:02.479Z,1.40
2022-10-06T01:29:32.440Z,1.80
2022-10-06T01:32:00.082Z,1.77
2022-10-06T01:34:28.048Z,2.60
2022-10-06T01:36:55.527Z,1.80
2022-10-06T01:39:22.847Z,1.80
2022-10-06T01:41:51.496Z,1.98
2022-10-06T01:44:18.804Z,2.00
2022-10-06T01:46:46.158Z,2.03
2022-10-06T01:49:13.470Z,1.58
2022-10-06T01:51:40.785Z,1.52
2022-10-06T01:54:08.135Z,2.25
2022-10-06T01:56:35.465Z,1.85
2022-10-06T01:59:04.139Z,1.75
2022-10-06T02:01:31.589Z,1.83
2022-10-06T02:03:58.999Z,2.25
2022-10-06T02:06:26.503Z,1.95
2022-10-06T02:08:53.824Z,1.80
2022-10-06T02:11:21.149Z,1.95
2022-10-06T02:13:48.796Z,2.30
2022-10-06T02:16:17.592Z,1.88
2022-10-06T02:18:45.038Z,1.90
2022-10-06T02:21:16.404Z,1.80
2022-10-06T02:23:43.812Z,2.25
2022-10-06T02:26:11.607Z,1.90
2022-10-06T02:28:39.132Z,2.58
2022-10-06T02:31:07.226Z,2.20
2022-10-06T02:33:36.401Z,2.13
2022-10-06T02:36:03.938Z,2.75
2022-10-06T02:38:32.378Z,2.47
2022-10-06T02:40:59.949Z,1.63
2022-10-06T02:43:28.814Z,1.80
2022-10-06T02:45:56.488Z,2.55
2022-10-06T02:48:24.221Z,2.38
2022-10-06T02:50:57.250Z,2.53
2022-10-06T02:53:25.842Z,2.72
2022-10-06T02:55:58.154Z,2.15
2022-10-06T02:58:26.300Z,1.55
2022-10-06T03:00:53.795Z,2.20
2022-10-06T03:03:21.086Z,3.20
2022-10-06T03:05:48.402Z,2.08
2022-10-06T03:08:17.067Z,2.58
2022-10-06T03:10:44.370Z,2.55
2022-10-06T03:13:11.758Z,2.35
2022-10-06T03:15:39.179Z,2.47
2022-10-06T03:18:07.332Z,2.13
2022-10-06T03:20:34.637Z,3.65
2022-10-06T03:23:01.929Z,2.30
2022-10-06T03:25:30.591Z,2.92
2022-10-06T03:27:57.935Z,2.92
2022-10-06T03:30:25.251Z,2.80
2022-10-06T03:32:54.525Z,2.90
2022-10-06T03:35:21.837Z,2.67
2022-10-06T03:37:49.130Z,2.95
2022-10-06T03:40:16.598Z,2.80
2022-10-06T03:42:45.263Z,3.03
2022-10-06T03:45:12.571Z,2.75
2022-10-06T03:47:39.884Z,2.30
2022-10-06T03:50:07.686Z,3.35
2022-10-06T03:52:35.799Z,2.22
2022-10-06T03:55:03.130Z,2.65
2022-10-06T03:57:30.442Z,1.95
2022-10-06T03:59:59.773Z,2.30
2022-10-06T04:02:27.152Z,2.70
2022-10-06T04:04:55.692Z,2.17
2022-10-06T04:07:23.012Z,2.67
2022-10-06T04:09:50.335Z,2.42
2022-10-06T04:12:17.644Z,2.17
2022-10-06T04:14:45.043Z,2.35
2022-10-06T04:17:13.694Z,2.50
2022-10-06T04:19:41.440Z,2.42
2022-10-06T04:22:08.716Z,2.78
2022-10-06T04:24:36.078Z,2.85
2022-10-06T04:27:17.333Z,2.53
2022-10-06T04:29:45.444Z,2.92
2022-10-06T04:32:15.760Z,2.85
2022-10-06T04:34:43.081Z,3.28
2022-10-06T04:37:10.654Z,3.45
2022-10-06T04:39:38.105Z,2.97
2022-10-06T04:42:05.476Z,3.72
2022-10-06T04:44:32.760Z,3.17
2022-10-06T04:47:01.148Z,3.55
2022-10-06T04:49:33.526Z,3.97
2022-10-06T04:52:00.901Z,3.80
2022-10-06T04:54:33.353Z,3.65
2022-10-06T04:57:01.097Z,3.03
2022-10-06T04:59:42.364Z,3.38
2022-10-06T05:02:09.753Z,2.95
2022-10-06T05:04:40.826Z,3.88
2022-10-06T05:07:08.209Z,4.05
2022-10-06T05:09:35.541Z,4.05
2022-10-06T05:12:02.828Z,3.70
2022-10-06T05:14:30.150Z,4.28
2022-10-06T05:16:57.429Z,3.90
2022-10-06T05:19:24.762Z,3.47
2022-10-06T05:21:53.402Z,3.35
2022-10-06T05:24:20.754Z,4.15
2022-10-06T05:26:49.913Z,3.85
2022-10-06T05:29:17.272Z,3.05
2022-10-06T05:31:45.228Z,3.72
2022-10-06T05:34:12.724Z,3.35
2022-10-06T05:36:40.042Z,3.28
2022-10-06T05:39:08.722Z,3.10
2022-10-06T05:41:37.609Z,3.10
2022-10-06T05:44:05.165Z,2.88
2022-10-06T05:46:33.553Z,2.70
2022-10-06T05:49:02.764Z,2.72
2022-10-06T05:51:31.511Z,3.45
2022-10-06T05:53:59.051Z,3.00
2022-10-06T05:56:28.313Z,2.78
2022-10-06T05:58:57.544Z,3.38
2022-10-06T06:01:25.517Z,3.35
2022-10-06T06:03:54.265Z,3.30
2022-10-06T06:06:22.687Z,2.20
2022-10-06T06:08:53.055Z,3.25
2022-10-06T06:11:25.159Z,3.03
2022-10-06T06:13:53.878Z,3.22
2022-10-06T06:16:20.244Z,2.90
2022-10-06T06:18:47.690Z,3.13
2022-10-06T06:21:15.006Z,3.88
2022-10-06T06:23:44.139Z,3.40
2022-10-06T06:26:12.973Z,3.58
2022-10-06T06:28:41.385Z,2.80
2022-10-06T06:31:13.284Z,2.92
2022-10-06T06:33:42.830Z,3.20
2022-10-06T06:36:13.587Z,2.63
2022-10-06T06:38:41.011Z,3.17
2022-10-06T06:41:14.405Z,4.03
2022-10-06T06:43:42.338Z,3.30
2022-10-06T06:46:11.411Z,4.10
2022-10-06T06:48:39.009Z,3.15
2022-10-06T06:51:07.299Z,3.15
2022-10-06T06:53:35.313Z,4.30
2022-10-06T06:56:03.999Z,3.58
2022-10-06T06:58:32.683Z,4.18
2022-10-06T07:01:07.332Z,3.42
2022-10-06T07:03:56.726Z,3.72
2022-10-06T07:06:28.189Z,3.60
2022-10-06T07:08:56.359Z,2.85
2022-10-06T07:11:24.406Z,3.83
2022-10-06T07:13:52.832Z,3.35
2022-10-06T07:16:38.115Z,3.03
2022-10-06T07:22:12.942Z,3.15
2022-10-06T07:24:57.702Z,3.10
2022-10-06T07:27:25.194Z,4.05
2022-10-06T07:29:55.271Z,2.97
2022-10-06T07:32:23.732Z,3.13
2022-10-06T07:34:51.749Z,3.60
2022-10-06T07:37:20.763Z,2.95
2022-10-06T07:39:49.415Z,3.63
2022-10-06T07:42:17.145Z,3.67
2022-10-06T07:45:05.211Z,3.28
2022-10-06T07:47:32.643Z,2.92
2022-10-06T07:49:59.953Z,3.40
2022-10-06T07:52:29.416Z,2.58
2022-10-06T07:54:58.289Z,3.78
2022-10-06T07:57:26.711Z,3.63
2022-10-06T07:59:54.038Z,3.55
2022-10-06T08:02:23.151Z,3.30
2022-10-06T08:04:50.765Z,3.05
2022-10-06T08:07:21.335Z,3.08
2022-10-06T08:09:52.384Z,3.13
2022-10-06T08:12:34.727Z,3.42
2022-10-06T08:15:06.980Z,3.00
2022-10-06T08:17:35.256Z,2.97
2022-10-06T08:20:02.872Z,3.28
2022-10-06T08:22:30.722Z,3.88
2022-10-06T08:25:06.848Z,3.35
2022-10-06T08:27:35.401Z,3.25
2022-10-06T08:30:03.245Z,3.47
2022-10-06T08:32:31.884Z,3.35
2022-10-06T08:34:59.270Z,2.90
2022-10-06T08:37:26.659Z,3.00
2022-10-06T08:39:54.547Z,3.88
2022-10-06T08:42:26.955Z,3.13
2022-10-06T08:44:57.027Z,3.60
2022-10-06T08:47:25.374Z,3.22
2022-10-06T08:49:54.695Z,2.95
2022-10-06T08:52:27.254Z,3.42
2022-10-06T08:54:59.382Z,2.97
2022-10-06T08:57:31.178Z,3.50
2022-10-06T08:59:59.105Z,2.95
2022-10-06T09:02:29.141Z,3.10
2022-10-06T09:04:58.029Z,3.38
2022-10-06T09:07:28.789Z,3.70
2022-10-06T09:10:04.260Z,3.63
2022-10-06T09:12:36.299Z,3.75
2022-10-06T09:15:09.292Z,4.10
2022-10-06T09:17:41.072Z,3.50
2022-10-06T09:20:15.246Z,3.28
2022-10-06T09:22:42.706Z,2.70
2022-10-06T09:25:17.134Z,3.17
2022-10-06T09:27:50.432Z,3.47
2022-10-06T09:30:18.041Z,2.72
2022-10-06T09:32:47.440Z,3.10
2022-10-06T09:35:17.822Z,3.03
2022-10-06T09:37:53.780Z,2.90
2022-10-06T09:40:38.181Z,2.97
2022-10-06T09:43:17.485Z,4.27
2022-10-06T09:45:44.878Z,2.80
2022-10-06T09:48:13.284Z,3.22
2022-10-06T09:50:40.680Z,2.55
2022-10-06T09:53:12.322Z,2.75
2022-10-06T09:55:44.500Z,2.35
2022-10-06T09:58:34.128Z,2.40
2022-10-06T10:01:02.931Z,2.08
2022-10-06T10:04:08.457Z,2.10
2022-10-06T10:06:37.628Z,2.13
2022-10-06T10:09:22.046Z,2.38
2022-10-06T10:12:18.368Z,2.72
2022-10-06T10:14:47.364Z,2.65
2022-10-06T10:17:19.047Z,2.22
2022-10-06T10:19:52.834Z,2.60
2022-10-06T10:22:22.526Z,2.00
2022-10-06T10:24:55.047Z,2.38
2022-10-06T10:27:27.620Z,2.40
2022-10-06T10:30:06.329Z,1.85
2022-10-06T10:32:41.427Z,2.20
2022-10-06T10:35:14.685Z,2.08
2022-10-06T10:37:45.091Z,2.25
2022-10-06T10:40:15.957Z,2.45
2022-10-06T10:42:45.721Z,2.17
2022-10-06T10:45:17.094Z,2.42
2022-10-06T10:47:45.424Z,2.13
2022-10-06T10:50:20.598Z,1.88
2022-10-06T10:52:50.185Z,2.13
2022-10-06T10:55:20.829Z,2.47
2022-10-06T10:57:48.793Z,1.70
2022-10-06T11:00:19.810Z,2.00
2022-10-06T11:02:47.209Z,2.42
2022-10-06T11:05:16.831Z,2.40
2022-10-06T11:07:47.634Z,2.08
2022-10-06T11:10:18.274Z,2.20
2022-10-06T11:12:57.864Z,2.72
2022-10-06T11:15:33.917Z,2.42
2022-10-06T11:18:07.654Z,2.38
2022-10-06T11:20:39.811Z,2.55
2022-10-06T11:23:18.559Z,2.53
2022-10-06T11:25:49.002Z,2.33
2022-10-06T11:28:20.205Z,1.90
2022-10-06T11:30:56.687Z,2.08
2022-10-06T11:33:26.648Z,2.20
2022-10-06T11:35:54.215Z,1.90
2022-10-06T11:38:24.691Z,2.00
2022-10-06T11:41:03.358Z,2.42
2022-10-06T11:43:37.024Z,1.98
2022-10-06T11:46:09.000Z,2.22
2022-10-06T11:48:36.569Z,1.92
2022-10-06T11:51:22.680Z,2.63
2022-10-06T11:53:50.052Z,1.75
2022-10-06T11:56:24.127Z,1.83
2022-10-06T11:59:10.028Z,2.13
2022-10-06T12:01:55.481Z,2.08
2022-10-06T12:04:26.177Z,2.60
2022-10-06T12:06:58.749Z,2.65
2022-10-06T12:09:40.980Z,2.53
2022-10-06T12:12:23.170Z,1.83
2022-10-06T12:17:43.485Z,2.53
2022-10-06T12:20:16.245Z,2.00
2022-10-06T12:22:45.753Z,2.00
2022-10-06T12:25:16.724Z,1.95
2022-10-06T12:27:50.079Z,2.20
2022-10-06T12:30:21.030Z,2.22
2022-10-06T12:32:53.008Z,2.15
2022-10-06T12:35:25.815Z,1.88
2022-10-06T12:37:54.741Z,1.48
2022-10-06T12:40:41.176Z,1.77
2022-10-06T12:43:22.796Z,1.70
2022-10-06T12:45:58.745Z,1.58
2022-10-06T12:48:28.670Z,1.73
2022-10-06T12:50:58.923Z,2.08
2022-10-06T12:53:32.720Z,1.52
2022-10-06T12:56:02.597Z,1.65
2022-10-06T12:58:32.333Z,1.98
2022-10-06T13:01:00.948Z,1.73
2022-10-06T13:03:29.524Z,2.03
2022-10-06T13:05:59.885Z,2.22
2022-10-06T13:08:28.246Z,2.10
2022-10-06T13:11:10.559Z,1.77
2022-10-06T13:13:38.659Z,2.00
2022-10-06T13:16:07.014Z,2.13
2022-10-06T13:18:34.375Z,2.28
2022-10-06T13:21:03.347Z,2.05
2022-10-06T13:23:31.939Z,2.47
2022-10-06T13:26:00.185Z,1.90
2022-10-06T13:28:29.063Z,2.15
2022-10-06T13:30:57.337Z,2.03
2022-10-06T13:33:28.939Z,1.58
2022-10-06T13:35:56.686Z,2.05
2022-10-06T13:38:25.605Z,1.80
2022-10-06T13:41:17.267Z,1.73
2022-10-06T13:43:46.913Z,1.77
2022-10-06T13:46:15.827Z,1.80
2022-10-06T13:48:45.276Z,1.60
2022-10-06T13:51:15.841Z,1.90
2022-10-06T13:53:46.510Z,1.63
2022-10-06T13:56:24.984Z,1.50
2022-10-06T13:58:52.381Z,2.00
2022-10-06T14:01:28.309Z,1.65
2022-10-06T14:04:10.532Z,1.60
2022-10-06T14:06:37.909Z,1.50
2022-10-06T14:09:11.732Z,1.60
2022-10-06T14:11:41.256Z,1.25
2022-10-06T14:14:15.582Z,2.00
2022-10-06T14:16:47.410Z,1.75
2022-10-06T14:19:29.563Z,2.05
2022-10-06T14:21:56.858Z,1.92
2022-10-06T14:24:28.197Z,1.98
2022-10-06T14:26:57.087Z,2.40
2022-10-06T14:29:25.081Z,2.15
2022-10-06T14:31:52.421Z,1.92
2022-10-06T14:34:20.383Z,1.80
2022-10-06T14:36:48.611Z,1.70
2022-10-06T14:39:16.449Z,1.40
2022-10-06T14:41:45.368Z,1.70
2022-10-06T14:44:14.892Z,1.98
2022-10-06T14:46:42.941Z,1.77
2022-10-06T14:49:11.358Z,1.92
2022-10-06T14:51:39.384Z,1.75
2022-10-06T14:54:07.344Z,1.38
2022-10-06T14:56:35.285Z,1.60
2022-10-06T14:59:05.960Z,1.58
2022-10-06T15:01:33.854Z,2.15
2022-10-06T15:04:02.086Z,1.42
2022-10-06T15:06:47.147Z,1.88
2022-10-06T15:09:14.870Z,2.10
2022-10-06T15:11:42.440Z,1.77
2022-10-06T15:14:11.480Z,1.77
2022-10-06T15:16:40.647Z,1.83
2022-10-06T15:19:08.980Z,1.92
2022-10-06T15:21:39.648Z,1.60
2022-10-06T15:24:07.717Z,1.90
2022-10-06T15:26:52.635Z,2.28
2022-10-06T15:29:21.356Z,1.90
2022-10-06T15:31:52.863Z,1.48
2022-10-06T15:34:20.745Z,1.83
2022-10-06T15:36:51.723Z,1.73
2022-10-06T15:39:20.105Z,2.03
2022-10-06T15:41:47.658Z,1.60
2022-10-06T15:44:15.241Z,1.90
2022-10-06T15:46:44.995Z,1.55
2022-10-06T15:49:13.126Z,1.83
2022-10-06T15:51:44.920Z,1.73
2022-10-06T15:54:12.495Z,1.65
2022-10-06T15:56:39.784Z,1.25
2022-10-06T15:59:07.486Z,1.80
2022-10-06T16:01:40.717Z,1.80
2022-10-06T16:04:15.690Z,1.85
2022-10-06T16:09:17.881Z,1.50
2022-10-06T16:11:45.782Z,1.50
2022-10-06T16:14:13.144Z,1.90
2022-10-06T16:16:43.675Z,1.45
2022-10-06T16:19:12.988Z,1.13
2022-10-06T16:21:40.732Z,1.40
2022-10-06T16:24:08.402Z,1.50
2022-10-06T16:26:36.160Z,1.30
2022-10-06T16:29:03.550Z,1.63
2022-10-06T16:31:30.959Z,1.67
2022-10-06T16:33:58.525Z,1.83
2022-10-06T16:36:27.205Z,1.23
2022-10-06T16:38:54.839Z,1.60
2022-10-06T16:41:22.599Z,1.27
2022-10-06T16:43:50.629Z,1.42
2022-10-06T16:46:18.912Z,1.48
2022-10-06T16:48:47.374Z,1.60
2022-10-06T16:51:15.387Z,1.70
2022-10-06T16:53:48.644Z,1.52
2022-10-06T16:56:17.339Z,1.20
2022-10-06T16:58:45.399Z,1.30
2022-10-06T17:01:13.843Z,1.60
2022-10-06T17:03:41.722Z,1.80
2022-10-06T17:06:10.086Z,1.48
2022-10-06T17:08:37.944Z,1.70
2022-10-06T17:11:08.358Z,1.88
2022-10-06T17:13:35.870Z,1.67
2022-10-06T17:16:04.606Z,1.77
2022-10-06T17:18:32.411Z,2.10
2022-10-06T17:21:00.804Z,2.17
2022-10-06T17:23:28.545Z,1.70
2022-10-06T17:26:06.533Z,1.88
2022-10-06T17:28:35.745Z,3.45
2022-10-06T17:31:03.095Z,4.20
2022-10-06T17:33:34.078Z,4.68
2022-10-06T17:36:08.449Z,4.70
2022-10-06T17:38:36.930Z,4.13
2022-10-06T17:41:07.163Z,4.18
2022-10-06T17:43:40.038Z,4.32
2022-10-06T17:46:08.845Z,4.75
2022-10-06T17:48:36.162Z,3.90
2022-10-06T17:51:03.475Z,3.63
2022-10-06T17:53:30.871Z,3.85
2022-10-06T17:55:58.271Z,3.28
2022-10-06T17:58:25.630Z,2.92
2022-10-06T18:00:54.337Z,3.00
2022-10-06T18:03:26.341Z,2.40
2022-10-06T18:05:54.298Z,2.88
2022-10-06T18:08:25.318Z,2.35
2022-10-06T18:11:10.964Z,2.78
2022-10-06T18:13:38.282Z,2.75
2022-10-06T18:16:13.388Z,2.60
2022-10-06T18:18:43.662Z,3.00
2022-10-06T18:21:10.986Z,2.67
2022-10-06T18:23:38.828Z,3.30
2022-10-06T18:26:06.339Z,2.88
2022-10-06T18:28:33.833Z,2.42
2022-10-06T18:31:01.321Z,3.00
2022-10-06T18:36:10.460Z,3.30
2022-10-06T18:36:17.408Z,2.63
2022-10-06T18:38:46.816Z,2.72
2022-10-06T18:41:15.278Z,2.38
2022-10-06T18:43:42.764Z,2.78
2022-10-06T18:46:29.205Z,2.83
2022-10-06T18:49:05.186Z,3.58
2022-10-06T18:51:33.507Z,2.88
2022-10-06T18:54:01.275Z,3.53
2022-10-06T18:56:29.875Z,3.40
2022-10-06T18:58:58.662Z,3.25
2022-10-06T19:01:27.136Z,3.13
2022-10-06T19:03:55.813Z,2.75
2022-10-06T19:06:26.690Z,2.88
2022-10-06T19:08:56.835Z,2.72
2022-10-06T19:11:41.890Z,2.50
2022-10-06T19:14:09.668Z,3.28
2022-10-06T19:16:37.238Z,3.03
2022-10-06T19:19:10.565Z,2.38
2022-10-06T19:21:40.679Z,2.63
2022-10-06T19:24:09.409Z,3.38
2022-10-06T19:26:36.751Z,2.50
2022-10-06T19:29:10.687Z,3.00
2022-10-06T19:31:39.898Z,3.17
2022-10-06T19:34:08.394Z,2.85
2022-10-06T19:36:36.137Z,2.70
2022-10-06T19:39:05.261Z,3.10
2022-10-06T19:41:55.637Z,2.92
2022-10-06T19:44:23.137Z,3.88
2022-10-06T19:46:50.910Z,4.13
2022-10-06T19:49:18.642Z,3.70
2022-10-06T19:51:47.226Z,5.13
2022-10-06T19:54:17.463Z,4.43
2022-10-06T19:56:45.832Z,3.65
2022-10-06T19:59:14.762Z,3.85
2022-10-06T20:01:42.389Z,3.97
2022-10-06T20:04:09.990Z,4.07
2022-10-06T20:06:37.767Z,3.60
2022-10-06T20:09:08.719Z,3.25
2022-10-06T20:11:37.982Z,3.72
2022-10-06T20:14:05.923Z,3.53
2022-10-06T20:16:33.928Z,3.83
2022-10-06T20:19:01.279Z,3.58
2022-10-06T20:21:30.766Z,3.65
2022-10-06T20:23:59.270Z,3.10
2022-10-06T20:26:27.259Z,3.50
2022-10-06T20:28:55.943Z,3.50
2022-10-06T20:31:24.872Z,3.15
2022-10-06T20:33:53.170Z,3.70
2022-10-06T20:36:20.770Z,2.90
2022-10-06T20:39:05.575Z,3.67
2022-10-06T20:41:33.291Z,3.42
2022-10-06T20:44:02.895Z,3.25
2022-10-06T20:46:31.238Z,2.85
2022-10-06T20:48:58.827Z,4.28
2022-10-06T20:51:27.848Z,3.50
2022-10-06T20:53:55.350Z,3.05
2022-10-06T20:56:22.646Z,3.38
2022-10-06T20:58:50.588Z,3.40
2022-10-06T21:01:20.918Z,2.60
2022-10-06T21:03:49.164Z,3.30
2022-10-06T21:06:17.122Z,3.47
2022-10-06T21:08:45.178Z,3.38
2022-10-06T21:11:13.122Z,3.28
2022-10-06T21:13:42.145Z,2.90
2022-10-06T21:16:12.066Z,3.33
2022-10-06T21:18:40.781Z,2.85
2022-10-06T21:21:08.095Z,3.80
2022-10-06T21:23:37.460Z,2.75
2022-10-06T21:26:06.282Z,2.70
2022-10-06T21:28:33.750Z,2.63
2022-10-06T21:31:04.413Z,3.47
2022-10-06T21:33:32.732Z,2.85
2022-10-06T21:36:02.115Z,3.28
2022-10-06T21:38:29.861Z,2.95
2022-10-06T21:41:01.302Z,2.45
2022-10-06T21:43:28.752Z,2.58
2022-10-06T21:46:17.161Z,2.70
2022-10-06T21:48:43.442Z,2.90
2022-10-06T21:51:12.111Z,3.45
2022-10-06T21:53:41.991Z,3.10
2022-10-06T21:56:09.283Z,3.28
2022-10-06T21:58:36.630Z,2.33
2022-10-06T22:01:04.061Z,2.50
2022-10-06T22:03:31.687Z,3.35
2022-10-06T22:06:06.142Z,2.45
2022-10-06T22:08:42.513Z,2.80
2022-10-06T22:11:12.411Z,3.05
2022-10-06T22:13:40.799Z,2.67
2022-10-06T22:16:08.802Z,3.25
2022-10-06T22:18:36.882Z,3.05
2022-10-06T22:21:11.273Z,2.72
2022-10-06T22:23:39.956Z,3.08
2022-10-06T22:26:07.293Z,2.95
2022-10-06T22:28:34.713Z,2.63
2022-10-06T22:31:03.134Z,2.90
2022-10-06T22:33:30.574Z,2.08
2022-10-06T22:35:57.853Z,3.00
2022-10-06T22:38:25.138Z,2.40
2022-10-06T22:40:53.847Z,2.58
2022-10-06T22:43:21.104Z,3.40
2022-10-06T22:45:48.375Z,3.13
2022-10-06T22:48:15.662Z,3.30
2022-10-06T22:50:42.897Z,3.03
2022-10-06T22:53:11.011Z,3.00
2022-10-06T22:55:38.277Z,2.80
2022-10-06T22:58:06.939Z,3.35
2022-10-06T23:00:35.927Z,3.13
2022-10-06T23:03:03.355Z,3.95
2022-10-06T23:05:30.701Z,3.05
2022-10-06T23:07:58.011Z,3.35
2022-10-06T23:10:25.324Z,3.67
2022-10-06T23:12:54.506Z,3.15
2022-10-06T23:15:23.349Z,3.28
2022-10-06T23:17:50.637Z,3.35
2022-10-06T23:20:18.497Z,3.47
2022-10-06T23:22:45.836Z,2.78
2022-10-06T23:25:13.406Z,3.00
2022-10-06T23:27:41.006Z,4.00
2022-10-06T23:30:09.091Z,3.17
2022-10-06T23:32:40.435Z,3.10
2022-10-06T23:35:08.374Z,3.53
2022-10-06T23:37:35.729Z,3.30
2022-10-06T23:40:03.248Z,3.03
2022-10-06T23:42:30.613Z,2.90
2022-10-06T23:44:57.912Z,3.40
2022-10-06T23:47:25.222Z,3.85
2022-10-06T23:49:54.092Z,3.38
2022-10-06T23:52:24.400Z,4.00
2022-10-06T23:54:51.693Z,3.22
2022-10-06T23:57:18.952Z,3.33
2022-10-06T23:59:46.249Z,3.28
